createdAt,value
2023-05-11T00:01:06.057Z,96878.91
2023-05-11T00:03:33.279Z,96885.00
2023-05-11T00:06:00.420Z,96877.53
2023-05-11T00:08:27.405Z,96871.19
2023-05-11T00:10:54.106Z,96875.06
2023-05-11T00:13:20.994Z,96880.16
2023-05-11T00:15:47.673Z,96869.19
2023-05-11T00:18:14.402Z,96862.63
2023-05-11T00:20:41.087Z,96870.81
2023-05-11T00:23:07.803Z,96871.56
2023-05-11T00:25:34.553Z,96881.28
2023-05-11T00:28:01.146Z,96876.59
2023-05-11T00:30:27.843Z,96865.22
2023-05-11T00:32:54.539Z,96869.50
2023-05-11T00:35:21.582Z,96870.69
2023-05-11T00:37:48.442Z,96859.28
2023-05-11T00:40:15.260Z,96871.56
2023-05-11T00:42:42.076Z,96864.66
2023-05-11T00:45:08.988Z,96863.03
2023-05-11T00:47:35.695Z,96873.09
2023-05-11T00:50:02.655Z,96859.28
2023-05-11T00:52:30.118Z,96871.31
2023-05-11T00:54:56.767Z,96854.44
2023-05-11T00:57:23.640Z,96854.38
2023-05-11T00:59:50.441Z,96862.94
2023-05-11T01:02:17.753Z,96864.56
2023-05-11T01:04:44.954Z,96851.50
2023-05-11T01:07:23.877Z,96856.34
2023-05-11T01:10:13.608Z,96875.38
2023-05-11T01:13:01.851Z,96868.88
2023-05-11T01:15:45.172Z,96873.38
2023-05-11T01:18:21.465Z,96872.31
2023-05-11T01:20:49.646Z,96870.19
2023-05-11T01:23:25.432Z,96880.59
2023-05-11T01:27:03.190Z,96876.31
2023-05-11T01:29:47.939Z,96867.34
2023-05-11T01:32:26.543Z,96866.50
2023-05-11T01:35:01.311Z,96866.50
2023-05-11T01:37:28.457Z,96876.03
2023-05-11T01:40:01.821Z,96869.03
2023-05-11T01:42:45.001Z,96881.47
2023-05-11T01:45:13.342Z,96874.13
2023-05-11T01:47:41.965Z,96865.09
2023-05-11T01:50:09.112Z,96881.53
2023-05-11T01:52:37.714Z,96881.97
2023-05-11T01:55:06.296Z,96873.44
2023-05-11T01:57:33.742Z,96878.06
2023-05-11T02:00:01.435Z,96889.06
2023-05-11T02:02:29.034Z,96877.25
2023-05-11T02:04:55.979Z,96889.31
2023-05-11T02:07:23.508Z,96897.22
2023-05-11T02:09:50.918Z,96889.09
2023-05-11T02:12:19.980Z,96881.59
2023-05-11T02:14:47.642Z,96890.06
2023-05-11T02:17:15.804Z,96886.06
2023-05-11T02:19:43.316Z,96884.63
2023-05-11T02:22:10.260Z,96866.09
2023-05-11T02:24:37.109Z,96875.03
2023-05-11T02:27:04.001Z,96880.63
2023-05-11T02:29:30.803Z,96882.84
2023-05-11T02:32:08.521Z,96871.84
2023-05-11T02:34:43.857Z,96868.22
2023-05-11T02:37:13.440Z,96865.59
2023-05-11T02:39:41.674Z,96884.81
2023-05-11T02:42:14.480Z,96869.56
2023-05-11T02:44:45.844Z,96860.13
2023-05-11T02:47:12.652Z,96878.47
2023-05-11T02:49:40.103Z,96877.19
2023-05-11T02:52:07.984Z,96882.72
2023-05-11T02:54:35.666Z,96891.69
2023-05-11T02:57:03.920Z,96884.38
2023-05-11T02:59:31.014Z,96892.97
2023-05-11T03:01:58.709Z,96872.06
2023-05-11T03:04:25.680Z,96885.56
2023-05-11T03:06:52.413Z,96870.75
2023-05-11T03:09:19.282Z,96873.63
2023-05-11T03:11:46.601Z,96887.44
2023-05-11T03:14:13.433Z,96887.31
2023-05-11T03:16:41.191Z,96881.41
2023-05-11T03:19:08.675Z,96875.16
2023-05-11T03:21:37.514Z,96878.22
2023-05-11T03:24:06.996Z,96871.34
2023-05-11T03:26:34.681Z,96868.16
2023-05-11T03:29:01.526Z,96867.84
2023-05-11T03:31:28.200Z,96882.88
2023-05-11T03:33:55.061Z,96876.22
2023-05-11T03:36:23.159Z,96869.06
2023-05-11T03:38:52.807Z,96869.84
2023-05-11T03:41:20.332Z,96871.72
2023-05-11T03:43:51.548Z,96867.41
2023-05-11T03:46:20.942Z,96862.69
2023-05-11T03:48:48.238Z,96873.63
2023-05-11T03:51:15.039Z,96853.06
2023-05-11T03:53:41.874Z,96859.06
2023-05-11T03:56:08.732Z,96871.63
2023-05-11T03:58:40.564Z,96877.13
2023-05-11T04:01:08.541Z,96876.78
2023-05-11T04:03:56.272Z,96873.38
2023-05-11T04:06:23.147Z,96869.72
2023-05-11T04:08:50.526Z,96880.75
2023-05-11T04:11:17.158Z,96877.75
2023-05-11T04:13:43.879Z,96860.84
2023-05-11T04:16:10.818Z,96873.91
2023-05-11T04:18:37.606Z,96862.56
2023-05-11T04:21:06.225Z,96871.53
2023-05-11T04:23:32.953Z,96862.88
2023-05-11T04:25:59.750Z,96867.94
2023-05-11T04:28:28.176Z,96885.91
2023-05-11T04:30:55.547Z,96875.56
2023-05-11T04:33:22.798Z,96886.75
2023-05-11T04:35:54.378Z,96884.59
2023-05-11T04:38:22.323Z,96882.56
2023-05-11T04:40:50.784Z,96890.75
2023-05-11T04:43:19.567Z,96886.75
2023-05-11T04:45:52.244Z,96894.31
2023-05-11T04:48:20.710Z,96880.09
2023-05-11T04:50:47.936Z,96895.78
2023-05-11T04:53:14.701Z,96887.66
2023-05-11T04:55:41.467Z,96898.63
2023-05-11T04:58:08.134Z,96892.13
2023-05-11T05:00:36.642Z,96894.56
2023-05-11T05:03:03.594Z,96897.00
2023-05-11T05:05:30.422Z,96908.03
2023-05-11T05:07:57.118Z,96898.09
2023-05-11T05:10:23.820Z,96894.63
2023-05-11T05:12:50.539Z,96894.00
2023-05-11T05:15:17.248Z,96910.91
2023-05-11T05:17:43.968Z,96894.84
2023-05-11T05:20:10.917Z,96897.72
2023-05-11T05:22:37.667Z,96906.53
2023-05-11T05:25:04.642Z,96918.13
2023-05-11T05:27:34.784Z,96910.59
2023-05-11T05:30:01.832Z,96917.94
2023-05-11T05:32:29.020Z,96913.06
2023-05-11T05:34:55.764Z,96922.69
2023-05-11T05:37:22.445Z,96930.00
2023-05-11T05:39:49.251Z,96926.94
2023-05-11T05:42:16.066Z,96918.53
2023-05-11T05:44:42.769Z,96925.84
2023-05-11T05:47:09.483Z,96922.28
2023-05-11T05:49:36.240Z,96937.81
2023-05-11T05:52:02.943Z,96937.03
2023-05-11T05:54:29.611Z,96926.72
2023-05-11T05:56:56.388Z,96925.16
2023-05-11T05:59:24.429Z,96923.78
2023-05-11T06:01:51.744Z,96942.28
2023-05-11T06:04:18.844Z,96928.25
2023-05-11T06:06:46.616Z,96940.25
2023-05-11T06:09:13.780Z,96944.53
2023-05-11T06:11:41.261Z,96936.81
2023-05-11T06:14:07.951Z,96938.69
2023-05-11T06:16:34.724Z,96956.00
2023-05-11T06:19:01.525Z,96942.56
2023-05-11T06:21:30.765Z,96942.91
2023-05-11T06:23:57.553Z,96945.41
2023-05-11T06:26:25.388Z,96947.25
2023-05-11T06:28:52.800Z,96946.22
2023-05-11T06:31:19.795Z,96947.06
2023-05-11T06:33:46.558Z,96959.72
2023-05-11T06:36:13.247Z,96951.59
2023-05-11T06:38:39.946Z,96954.22
2023-05-11T06:41:07.578Z,96954.03
2023-05-11T06:43:34.341Z,96943.66
2023-05-11T06:46:01.066Z,96945.88
2023-05-11T06:48:30.094Z,96956.84
2023-05-11T06:50:57.039Z,96956.84
2023-05-11T06:53:23.814Z,96950.31
2023-05-11T06:55:50.544Z,96951.53
2023-05-11T06:58:20.720Z,96960.06
2023-05-11T07:00:47.455Z,96955.78
2023-05-11T07:03:14.221Z,96957.81
2023-05-11T07:05:41.150Z,96952.47
2023-05-11T07:08:08.081Z,96954.91
2023-05-11T07:10:34.768Z,96945.75
2023-05-11T07:13:01.437Z,96951.91
2023-05-11T07:15:28.172Z,96942.16
2023-05-11T07:17:54.970Z,96957.28
2023-05-11T07:20:21.771Z,96948.53
2023-05-11T07:22:48.631Z,96949.34
2023-05-11T07:25:15.488Z,96965.06
2023-05-11T07:27:42.437Z,96962.66
2023-05-11T07:30:09.594Z,96953.91
2023-05-11T07:32:36.339Z,96948.44
2023-05-11T07:35:03.100Z,96951.94
2023-05-11T07:37:29.873Z,96966.00
2023-05-11T07:39:56.745Z,96954.59
2023-05-11T07:42:23.472Z,96945.63
2023-05-11T07:44:50.240Z,96953.13
2023-05-11T07:47:19.108Z,96962.69
2023-05-11T07:49:47.507Z,96956.34
2023-05-11T07:52:14.634Z,96957.72
2023-05-11T07:54:41.501Z,96974.22
2023-05-11T07:57:08.498Z,96963.41
2023-05-11T07:59:36.125Z,96954.22
2023-05-11T08:02:04.307Z,96972.53
2023-05-11T08:04:31.149Z,96953.59
2023-05-11T08:06:58.501Z,96957.47
2023-05-11T08:09:25.328Z,96970.34
2023-05-11T08:11:53.333Z,96955.25
2023-05-11T08:14:21.363Z,96959.16
2023-05-11T08:16:49.793Z,96970.28
2023-05-11T08:19:16.747Z,96957.59
2023-05-11T08:21:44.427Z,96968.56
2023-05-11T08:24:11.144Z,96972.81
2023-05-11T08:26:38.228Z,96971.81
2023-05-11T08:29:05.173Z,96969.50
2023-05-11T08:31:32.190Z,96981.94
2023-05-11T08:33:59.169Z,96972.47
2023-05-11T08:36:26.375Z,96967.41
2023-05-11T08:38:57.050Z,96963.53
2023-05-11T08:41:26.034Z,96967.00
2023-05-11T08:43:53.139Z,96957.63
2023-05-11T08:46:22.989Z,96957.81
2023-05-11T08:48:50.854Z,96968.22
2023-05-11T08:51:17.957Z,96962.69
2023-05-11T08:53:45.647Z,96974.09
2023-05-11T08:56:12.692Z,96985.47
2023-05-11T08:58:40.131Z,96977.31
2023-05-11T09:01:07.849Z,96974.41
2023-05-11T09:03:37.217Z,96982.81
2023-05-11T09:06:07.546Z,96978.09
2023-05-11T09:08:38.595Z,96974.84
2023-05-11T09:11:06.761Z,96978.53
2023-05-11T09:13:34.232Z,96975.84
2023-05-11T09:16:01.202Z,96970.97
2023-05-11T09:18:28.216Z,96978.50
2023-05-11T09:20:55.280Z,96977.28
2023-05-11T09:23:27.001Z,96970.69
2023-05-11T09:25:54.209Z,96973.13
2023-05-11T09:28:25.904Z,96972.88
2023-05-11T09:30:53.905Z,96969.69
2023-05-11T09:33:25.026Z,96971.41
2023-05-11T09:35:52.146Z,96973.41
2023-05-11T09:38:23.266Z,96973.28
2023-05-11T09:40:52.434Z,96982.19
2023-05-11T09:43:24.963Z,96978.44
2023-05-11T09:45:54.091Z,96966.16
2023-05-11T09:48:21.225Z,96985.63
2023-05-11T09:50:49.456Z,96972.50
2023-05-11T09:53:17.244Z,96967.66
2023-05-11T09:55:55.605Z,96966.00
2023-05-11T09:58:23.195Z,96975.69
2023-05-11T10:00:56.726Z,96966.88
2023-05-11T10:03:25.864Z,96963.59
2023-05-11T10:06:01.132Z,96958.63
2023-05-11T10:08:30.543Z,96967.31
2023-05-11T10:10:57.858Z,96972.06
2023-05-11T10:13:29.657Z,96959.81
2023-05-11T10:15:58.541Z,96955.88
2023-05-11T10:18:25.773Z,96966.44
2023-05-11T10:20:53.590Z,96961.09
2023-05-11T10:23:21.270Z,96956.06
2023-05-11T10:25:48.711Z,96960.91
2023-05-11T10:28:15.734Z,96943.66
2023-05-11T10:30:43.240Z,96940.94
2023-05-11T10:33:11.249Z,96945.44
2023-05-11T10:35:39.393Z,96950.28
2023-05-11T10:38:10.377Z,96931.09
2023-05-11T10:40:39.225Z,96929.59
2023-05-11T10:43:06.690Z,96944.72
2023-05-11T10:45:42.471Z,96944.72
2023-05-11T10:48:41.649Z,96937.97
2023-05-11T10:51:34.096Z,96935.91
2023-05-11T10:54:03.733Z,96937.25
2023-05-11T10:57:07.981Z,96944.13
2023-05-11T10:59:43.655Z,96941.63
2023-05-11T11:02:10.873Z,96930.56
2023-05-11T11:04:49.757Z,96914.84
2023-05-11T11:07:20.131Z,96924.84
2023-05-11T11:10:13.116Z,96929.34
2023-05-11T11:12:41.118Z,96919.13
2023-05-11T11:15:09.230Z,96914.13
2023-05-11T11:17:36.723Z,96904.50
2023-05-11T11:20:07.797Z,96910.25
2023-05-11T11:22:34.486Z,96919.66
2023-05-11T11:25:08.832Z,96910.63
2023-05-11T11:27:41.623Z,96910.34
2023-05-11T11:30:22.834Z,96911.56
2023-05-11T11:32:56.864Z,96922.13
2023-05-11T11:35:42.291Z,96913.25
2023-05-11T11:38:14.426Z,96914.06
2023-05-11T11:40:53.994Z,96908.06
2023-05-11T11:43:25.535Z,96907.13
2023-05-11T11:45:52.539Z,96898.72
2023-05-11T11:48:41.675Z,96910.16
2023-05-11T11:51:10.502Z,96903.31
2023-05-11T11:53:46.290Z,96901.94
2023-05-11T11:56:15.918Z,96914.06
2023-05-11T11:58:42.733Z,96907.69
2023-05-11T12:01:11.897Z,96911.69
2023-05-11T12:03:39.749Z,96909.69
2023-05-11T12:06:08.052Z,96901.00
2023-05-11T12:08:35.973Z,96900.38
2023-05-11T12:11:04.167Z,96906.13
2023-05-11T12:13:31.124Z,96893.56
2023-05-11T12:16:17.515Z,96903.44
2023-05-11T12:19:01.040Z,96904.31
2023-05-11T12:21:31.770Z,96886.81
2023-05-11T12:24:00.870Z,96900.09
2023-05-11T12:26:28.927Z,96895.84
2023-05-11T12:29:15.114Z,96886.44
2023-05-11T12:31:43.279Z,96888.72
2023-05-11T12:34:17.563Z,96890.25
2023-05-11T12:36:49.236Z,96886.72
2023-05-11T12:39:23.068Z,96899.31
2023-05-11T12:41:51.077Z,96886.91
2023-05-11T12:44:18.736Z,96883.13
2023-05-11T12:46:49.750Z,96887.31
2023-05-11T12:51:51.138Z,96894.38
2023-05-11T12:54:51.693Z,96901.28
2023-05-11T12:57:29.974Z,96897.94
2023-05-11T13:00:08.194Z,96899.63
2023-05-11T13:02:35.099Z,96897.38
2023-05-11T13:05:12.088Z,96891.38
2023-05-11T13:07:38.947Z,96886.56
2023-05-11T13:10:06.113Z,96900.41
2023-05-11T13:12:34.320Z,96902.09
2023-05-11T13:15:05.782Z,96919.09
2023-05-11T13:17:33.897Z,96918.34
2023-05-11T13:20:23.794Z,96913.53
2023-05-11T13:22:51.461Z,96921.47
2023-05-11T13:25:21.698Z,96904.06
2023-05-11T13:27:48.596Z,96913.50
2023-05-11T13:30:15.435Z,96907.41
2023-05-11T13:32:42.178Z,96899.09
2023-05-11T13:35:09.248Z,96911.75
2023-05-11T13:37:35.942Z,96911.31
2023-05-11T13:40:02.643Z,96895.63
2023-05-11T13:42:29.549Z,96902.44
2023-05-11T13:44:56.439Z,96904.78
2023-05-11T13:47:23.243Z,96892.13
2023-05-11T13:49:50.057Z,96901.63
2023-05-11T13:52:16.684Z,96901.41
2023-05-11T13:54:43.293Z,96899.78
2023-05-11T13:57:10.176Z,96894.75
2023-05-11T13:59:37.004Z,96900.91
2023-05-11T14:02:03.858Z,96895.06
2023-05-11T14:04:30.651Z,96905.03
2023-05-11T14:06:57.617Z,96905.47
2023-05-11T14:09:24.276Z,96909.47
2023-05-11T14:11:50.975Z,96916.00
2023-05-11T14:14:17.696Z,96899.25
2023-05-11T14:16:44.648Z,96898.84
2023-05-11T14:19:11.545Z,96912.13
2023-05-11T14:21:38.312Z,96915.44
2023-05-11T14:24:12.198Z,96902.03
2023-05-11T14:26:39.498Z,96909.78
2023-05-11T14:29:06.076Z,96915.47
2023-05-11T14:31:34.856Z,96907.53
2023-05-11T14:34:01.720Z,96906.19
2023-05-11T14:36:28.408Z,96910.66
2023-05-11T14:38:55.058Z,96909.25
2023-05-11T14:41:21.782Z,96905.00
2023-05-11T14:43:49.445Z,96913.16
2023-05-11T14:46:16.894Z,96913.44
2023-05-11T14:48:43.810Z,96906.31
2023-05-11T14:51:10.475Z,96915.47
2023-05-11T14:53:37.131Z,96916.31
2023-05-11T14:56:03.877Z,96907.16
2023-05-11T14:58:30.604Z,96908.34
2023-05-11T15:00:57.217Z,96908.75
2023-05-11T15:03:25.205Z,96927.72
2023-05-11T15:05:51.983Z,96912.84
2023-05-11T15:08:29.120Z,96909.38
2023-05-11T15:10:57.100Z,96919.78
2023-05-11T15:13:24.230Z,96907.56
2023-05-11T15:15:51.582Z,96918.75
2023-05-11T15:18:20.942Z,96913.59
2023-05-11T15:20:47.604Z,96923.50
2023-05-11T15:23:17.477Z,96925.88
2023-05-11T15:25:44.925Z,96931.22
2023-05-11T15:28:11.973Z,96921.44
2023-05-11T15:30:38.747Z,96925.50
2023-05-11T15:33:05.574Z,96919.63
2023-05-11T15:35:34.781Z,96925.50
2023-05-11T15:38:01.529Z,96916.69
2023-05-11T15:40:29.325Z,96925.69
2023-05-11T15:42:58.476Z,96923.44
2023-05-11T15:45:25.703Z,96928.47
2023-05-11T15:47:52.364Z,96935.31
2023-05-11T15:50:19.444Z,96934.47
2023-05-11T15:52:46.212Z,96923.66
2023-05-11T15:55:12.795Z,96926.84
2023-05-11T15:57:39.379Z,96928.31
2023-05-11T16:00:06.729Z,96928.41
2023-05-11T16:02:34.650Z,96928.44
2023-05-11T16:05:01.421Z,96937.41
2023-05-11T16:07:28.609Z,96926.59
2023-05-11T16:09:55.477Z,96929.59
2023-05-11T16:12:22.073Z,96925.50
2023-05-11T16:14:48.716Z,96928.31
2023-05-11T16:17:15.379Z,96927.50
2023-05-11T16:19:42.116Z,96928.75
2023-05-11T16:22:08.727Z,96925.88
2023-05-11T16:24:35.389Z,96913.28
2023-05-11T16:27:02.090Z,96922.66
2023-05-11T16:29:28.725Z,96920.88
2023-05-11T16:31:56.619Z,96918.25
2023-05-11T16:34:23.279Z,96909.69
2023-05-11T16:36:49.919Z,96911.72
2023-05-11T16:39:16.564Z,96913.38
2023-05-11T16:41:43.524Z,96912.16
2023-05-11T16:44:10.154Z,96911.31
2023-05-11T16:46:36.908Z,96909.88
2023-05-11T16:49:03.588Z,96911.28
2023-05-11T16:51:30.368Z,96911.13
2023-05-11T16:53:57.376Z,96917.66
2023-05-11T16:56:24.161Z,96906.28
2023-05-11T16:58:50.772Z,96903.47
2023-05-11T17:01:17.528Z,96909.41
2023-05-11T17:03:44.307Z,96893.09
2023-05-11T17:06:13.704Z,96902.66
2023-05-11T17:08:40.761Z,96906.13
2023-05-11T17:11:07.642Z,96897.16
2023-05-11T17:13:34.337Z,96895.72
2023-05-11T17:16:01.106Z,96900.41
2023-05-11T17:18:28.120Z,96899.22
2023-05-11T17:20:55.169Z,96899.63
2023-05-11T17:23:23.150Z,96906.13
2023-05-11T17:25:49.874Z,96900.81
2023-05-11T17:28:16.628Z,96910.16
2023-05-11T17:30:48.853Z,96896.75
2023-05-11T17:33:16.426Z,96903.03
2023-05-11T17:35:43.381Z,96908.13
2023-05-11T17:38:10.265Z,96908.94
2023-05-11T17:40:36.956Z,96904.91
2023-05-11T17:43:03.649Z,96910.59
2023-05-11T17:45:30.395Z,96906.31
2023-05-11T17:47:57.318Z,96900.22
2023-05-11T17:50:24.115Z,96914.69
2023-05-11T17:52:51.358Z,96909.78
2023-05-11T17:55:18.556Z,96905.31
2023-05-11T17:57:45.419Z,96916.31
2023-05-11T18:00:12.661Z,96915.47
2023-05-11T18:02:39.529Z,96911.84
2023-05-11T18:05:07.131Z,96910.19
2023-05-11T18:07:33.995Z,96918.31
2023-05-11T18:10:00.664Z,96916.66
2023-05-11T18:12:27.757Z,96919.91
2023-05-11T18:14:54.463Z,96925.59
2023-05-11T18:17:21.973Z,96919.06
2023-05-11T18:19:48.692Z,96899.09
2023-05-11T18:22:15.285Z,96912.53
2023-05-11T18:24:42.110Z,96910.28
2023-05-11T18:27:08.731Z,96915.38
2023-05-11T18:29:37.405Z,96916.38
2023-05-11T18:32:04.279Z,96907.00
2023-05-11T18:34:31.010Z,96923.91
2023-05-11T18:36:57.669Z,96922.50
2023-05-11T18:39:24.336Z,96911.47
2023-05-11T18:41:51.152Z,96913.69
2023-05-11T18:44:19.306Z,96918.16
2023-05-11T18:46:46.107Z,96910.38
2023-05-11T18:49:13.050Z,96923.44
2023-05-11T18:51:39.822Z,96929.16
2023-05-11T18:54:06.728Z,96927.09
2023-05-11T18:56:33.475Z,96923.84
2023-05-11T18:59:00.220Z,96931.38
2023-05-11T19:01:39.883Z,96931.13
2023-05-11T19:04:14.349Z,96928.88
2023-05-11T19:06:41.119Z,96930.31
2023-05-11T19:09:07.730Z,96936.41
2023-05-11T19:11:35.490Z,96941.28
2023-05-11T19:14:02.657Z,96933.97
2023-05-11T19:16:32.592Z,96943.31
2023-05-11T19:18:59.689Z,96937.19
2023-05-11T19:21:26.498Z,96950.22
2023-05-11T19:23:53.153Z,96947.34
2023-05-11T19:26:19.789Z,96947.97
2023-05-11T19:28:46.378Z,96938.41
2023-05-11T19:31:13.465Z,96948.59
2023-05-11T19:33:40.186Z,96937.00
2023-05-11T19:36:07.344Z,96948.19
2023-05-11T19:38:35.992Z,96944.50
2023-05-11T19:41:03.211Z,96952.63
2023-05-11T19:43:29.795Z,96945.31
2023-05-11T19:45:56.440Z,96949.38
2023-05-11T19:48:23.399Z,96949.19
2023-05-11T19:50:50.105Z,96950.19
2023-05-11T19:53:16.799Z,96952.97
2023-05-11T19:55:45.397Z,96950.13
2023-05-11T19:58:14.075Z,96951.16
2023-05-11T20:00:43.585Z,96949.91
2023-05-11T20:03:10.524Z,96942.19
2023-05-11T20:05:37.344Z,96947.06
2023-05-11T20:08:06.149Z,96940.75
2023-05-11T20:10:32.822Z,96950.72
2023-05-11T20:13:02.527Z,96945.22
2023-05-11T20:15:29.198Z,96946.44
2023-05-11T20:17:55.964Z,96941.50
2023-05-11T20:20:22.803Z,96943.53
2023-05-11T20:22:49.478Z,96950.06
2023-05-11T20:25:18.783Z,96939.47
2023-05-11T20:27:46.224Z,96947.59
2023-05-11T20:30:13.297Z,96952.66
2023-05-11T20:34:06.587Z,96945.97
2023-05-11T20:35:26.849Z,96942.69
2023-05-11T20:37:53.551Z,96937.41
2023-05-11T20:40:20.574Z,96942.31
2023-05-11T20:42:47.374Z,96934.56
2023-05-11T20:45:14.075Z,96927.25
2023-05-11T20:47:40.787Z,96935.78
2023-05-11T20:50:09.337Z,96937.84
2023-05-11T20:52:36.442Z,96930.50
2023-05-11T20:55:03.932Z,96923.59
2023-05-11T20:57:30.580Z,96927.88
2023-05-11T21:02:27.105Z,96923.19
2023-05-11T21:04:54.186Z,96924.81
2023-05-11T21:07:23.053Z,96927.69
2023-05-11T21:09:49.695Z,96923.63
2023-05-11T21:12:16.399Z,96926.25
2023-05-11T21:14:43.057Z,96924.03
2023-05-11T21:17:09.868Z,96918.72
2023-05-11T21:19:36.696Z,96908.97
2023-05-11T21:22:03.359Z,96915.06
2023-05-11T21:24:29.964Z,96915.50
2023-05-11T21:26:56.618Z,96917.31
2023-05-11T21:29:23.221Z,96921.16
2023-05-11T21:31:50.051Z,96917.91
2023-05-11T21:34:17.364Z,96909.38
2023-05-11T21:36:45.683Z,96913.03
2023-05-11T21:39:13.314Z,96919.97
2023-05-11T21:41:40.000Z,96897.56
2023-05-11T21:44:06.694Z,96919.53
2023-05-11T21:46:33.489Z,96910.59
2023-05-11T21:49:00.128Z,96914.06
2023-05-11T21:51:26.862Z,96905.09
2023-05-11T21:53:53.557Z,96900.84
2023-05-11T21:56:20.255Z,96914.25
2023-05-11T21:58:46.952Z,96906.94
2023-05-11T22:01:13.967Z,96904.69
2023-05-11T22:03:40.646Z,96903.63
2023-05-11T22:06:07.652Z,96907.31
2023-05-11T22:08:34.340Z,96899.34
2023-05-11T22:11:01.055Z,96891.19
2023-05-11T22:13:28.157Z,96901.16
2023-05-11T22:15:57.796Z,96913.94
2023-05-11T22:18:24.574Z,96904.19
2023-05-11T22:20:51.346Z,96911.72
2023-05-11T22:23:18.045Z,96896.88
2023-05-11T22:25:44.722Z,96899.72
2023-05-11T22:28:11.542Z,96906.84
2023-05-11T22:30:38.288Z,96912.31
2023-05-11T22:33:04.922Z,96905.19
2023-05-11T22:35:31.696Z,96909.66
2023-05-11T22:37:58.468Z,96900.47
2023-05-11T22:40:25.427Z,96895.78
2023-05-11T22:42:52.127Z,96898.22
2023-05-11T22:45:18.923Z,96903.69
2023-05-11T22:47:45.712Z,96906.72
2023-05-11T22:50:12.350Z,96917.13
2023-05-11T22:52:39.377Z,96903.50
2023-05-11T22:55:06.683Z,96904.47
2023-05-11T22:57:33.412Z,96917.09
2023-05-11T23:00:00.115Z,96910.59
2023-05-11T23:02:26.830Z,96904.31
2023-05-11T23:04:53.834Z,96904.72
2023-05-11T23:07:20.890Z,96901.06
2023-05-11T23:09:47.823Z,96909.78
2023-05-11T23:12:14.450Z,96911.59
2023-05-11T23:14:41.958Z,96913.25
2023-05-11T23:17:08.792Z,96915.47
2023-05-11T23:19:35.498Z,96905.50
2023-05-11T23:22:02.391Z,96898.03
2023-05-11T23:24:29.082Z,96906.81
2023-05-11T23:26:56.122Z,96900.34
2023-05-11T23:29:23.010Z,96901.75
2023-05-11T23:31:51.084Z,96908.06
2023-05-11T23:34:18.522Z,96889.47
2023-05-11T23:36:45.285Z,96891.38
2023-05-11T23:39:12.273Z,96895.38
2023-05-11T23:41:39.032Z,96906.41
2023-05-11T23:44:05.777Z,96893.84
2023-05-11T23:46:32.737Z,96900.72
2023-05-11T23:48:59.432Z,96894.13
2023-05-11T23:51:26.317Z,96901.72
2023-05-11T23:53:53.041Z,96900.66
2023-05-11T23:56:19.820Z,96906.94
2023-05-11T23:58:46.534Z,96895.78
